sensor_id;sensor_type;location;lat;lon;timestamp;pressure;altitude;pressure_sealevel;temperature;humidity
38022;BME280;23832;43.216;27.946;2022-09-12T00:00:32;100087.56;;;25.48;48.14
38022;BME280;23832;43.216;27.946;2022-09-12T00:02:34;100085.66;;;25.48;48.37
38022;BME280;23832;43.216;27.946;2022-09-12T00:04:37;100089.44;;;25.47;48.63
38022;BME280;23832;43.216;27.946;2022-09-12T00:06:39;100086.78;;;25.42;49.19
38022;BME280;23832;43.216;27.946;2022-09-12T00:08:41;100088.97;;;25.40;50.18
38022;BME280;23832;43.216;27.946;2022-09-12T00:10:43;100076.34;;;25.36;51.05
38022;BME280;23832;43.216;27.946;2022-09-12T00:12:45;100085.75;;;25.38;51.55
38022;BME280;23832;43.216;27.946;2022-09-12T00:14:47;100080.66;;;25.37;52.26
38022;BME280;23832;43.216;27.946;2022-09-12T00:16:49;100105.47;;;25.34;52.95
38022;BME280;23832;43.216;27.946;2022-09-12T00:18:51;100083.16;;;25.28;53.17
38022;BME280;23832;43.216;27.946;2022-09-12T00:20:55;100083.47;;;25.22;53.89
38022;BME280;23832;43.216;27.946;2022-09-12T00:22:57;100090.78;;;25.21;54.73
38022;BME280;23832;43.216;27.946;2022-09-12T00:24:59;100088.09;;;25.16;55.18
38022;BME280;23832;43.216;27.946;2022-09-12T00:27:01;100091.66;;;25.11;56.37
38022;BME280;23832;43.216;27.946;2022-09-12T00:29:03;100098.97;;;25.06;56.77
38022;BME280;23832;43.216;27.946;2022-09-12T00:31:06;100094.16;;;25.03;57.87
38022;BME280;23832;43.216;27.946;2022-09-12T00:33:09;100104.69;;;24.99;58.56
38022;BME280;23832;43.216;27.946;2022-09-12T00:35:11;100105.22;;;24.96;59.94
38022;BME280;23832;43.216;27.946;2022-09-12T00:37:14;100109.00;;;24.95;61.59
38022;BME280;23832;43.216;27.946;2022-09-12T00:39:16;100105.00;;;24.92;63.23
38022;BME280;23832;43.216;27.946;2022-09-12T00:41:21;100108.78;;;24.91;65.39
38022;BME280;23832;43.216;27.946;2022-09-12T00:43:38;100131.69;;;24.89;67.14
38022;BME280;23832;43.216;27.946;2022-09-12T00:45:40;100122.03;;;24.83;69.84
38022;BME280;23832;43.216;27.946;2022-09-12T00:47:43;100131.50;;;24.80;73.44
38022;BME280;23832;43.216;27.946;2022-09-12T00:49:47;100133.13;;;24.76;77.73
38022;BME280;23832;43.216;27.946;2022-09-12T00:51:52;100134.22;;;24.70;80.86
38022;BME280;23832;43.216;27.946;2022-09-12T00:53:57;100152.34;;;24.65;83.66
38022;BME280;23832;43.216;27.946;2022-09-12T00:56:00;100165.03;;;24.59;86.00
38022;BME280;23832;43.216;27.946;2022-09-12T00:58:05;100173.16;;;24.54;91.42
38022;BME280;23832;43.216;27.946;2022-09-12T01:00:11;100176.13;;;24.42;93.62
38022;BME280;23832;43.216;27.946;2022-09-12T01:02:15;100193.66;;;24.34;99.65
38022;BME280;23832;43.216;27.946;2022-09-12T01:04:19;100200.66;;;24.30;100.00
38022;BME280;23832;43.216;27.946;2022-09-12T01:06:26;100199.88;;;24.25;100.00
38022;BME280;23832;43.216;27.946;2022-09-12T01:08:28;100198.53;;;24.17;100.00
38022;BME280;23832;43.216;27.946;2022-09-12T01:10:33;100194.78;;;24.13;100.00
38022;BME280;23832;43.216;27.946;2022-09-12T01:12:38;100190.47;;;24.07;100.00
38022;BME280;23832;43.216;27.946;2022-09-12T01:14:41;100189.97;;;24.00;100.00
38022;BME280;23832;43.216;27.946;2022-09-12T01:16:43;100174.91;;;23.94;100.00
38022;BME280;23832;43.216;27.946;2022-09-12T01:18:54;100170.59;;;23.93;100.00
38022;BME280;23832;43.216;27.946;2022-09-12T01:21:10;100173.84;;;23.85;100.00
38022;BME280;23832;43.216;27.946;2022-09-12T01:23:42;100175.72;;;23.94;100.00
38022;BME280;23832;43.216;27.946;2022-09-12T01:26:01;100166.84;;;23.94;100.00
38022;BME280;23832;43.216;27.946;2022-09-12T01:28:23;100166.56;;;24.00;100.00
38022;BME280;23832;43.216;27.946;2022-09-12T01:30:46;100166.81;;;23.99;100.00
38022;BME280;23832;43.216;27.946;2022-09-12T01:33:02;100165.75;;;24.00;100.00
38022;BME280;23832;43.216;27.946;2022-09-12T01:35:13;100166.81;;;23.99;100.00
38022;BME280;23832;43.216;27.946;2022-09-12T01:37:26;100172.75;;;23.96;100.00
38022;BME280;23832;43.216;27.946;2022-09-12T01:39:39;100176.00;;;23.93;100.00
38022;BME280;23832;43.216;27.946;2022-09-12T01:41:51;100177.59;;;23.89;100.00
38022;BME280;23832;43.216;27.946;2022-09-12T01:44:01;100176.00;;;23.83;100.00
38022;BME280;23832;43.216;27.946;2022-09-12T01:46:11;100172.22;;;23.78;100.00
38022;BME280;23832;43.216;27.946;2022-09-12T01:48:18;100171.72;;;23.76;100.00
38022;BME280;23832;43.216;27.946;2022-09-12T01:50:24;100172.78;;;23.75;100.00
38022;BME280;23832;43.216;27.946;2022-09-12T01:52:33;100172.25;;;23.73;100.00
38022;BME280;23832;43.216;27.946;2022-09-12T01:54:40;100173.84;;;23.69;100.00
38022;BME280;23832;43.216;27.946;2022-09-12T01:56:45;100169.84;;;23.67;100.00
38022;BME280;23832;43.216;27.946;2022-09-12T01:58:53;100169.84;;;23.67;100.00
38022;BME280;23832;43.216;27.946;2022-09-12T02:01:01;100155.56;;;23.61;100.00
38022;BME280;23832;43.216;27.946;2022-09-12T02:03:09;100167.69;;;23.64;100.00
38022;BME280;23832;43.216;27.946;2022-09-12T02:05:17;100157.16;;;23.57;100.00
38022;BME280;23832;43.216;27.946;2022-09-12T02:07:24;100156.09;;;23.58;100.00
38022;BME280;23832;43.216;27.946;2022-09-12T02:09:34;100165.50;;;23.56;100.00
38022;BME280;23832;43.216;27.946;2022-09-12T02:11:40;100150.69;;;23.53;100.00
38022;BME280;23832;43.216;27.946;2022-09-12T02:13:46;100154.47;;;23.52;100.00
38022;BME280;23832;43.216;27.946;2022-09-12T02:15:56;100150.44;;;23.49;100.00
38022;BME280;23832;43.216;27.946;2022-09-12T02:18:01;100156.09;;;23.48;100.00
38022;BME280;23832;43.216;27.946;2022-09-12T02:20:11;100158.25;;;23.46;100.00
38022;BME280;23832;43.216;27.946;2022-09-12T02:22:17;100160.38;;;23.44;100.00
38022;BME280;23832;43.216;27.946;2022-09-12T02:24:22;100157.97;;;23.42;100.00
38022;BME280;23832;43.216;27.946;2022-09-12T02:26:29;100145.84;;;23.25;100.00
38022;BME280;23832;43.216;27.946;2022-09-12T02:28:38;100161.19;;;23.34;100.00
38022;BME280;23832;43.216;27.946;2022-09-12T02:30:44;100158.25;;;23.31;100.00
38022;BME280;23832;43.216;27.946;2022-09-12T02:32:57;100157.72;;;23.29;100.00
38022;BME280;23832;43.216;27.946;2022-09-12T02:35:03;100155.25;;;23.27;100.00
38022;BME280;23832;43.216;27.946;2022-09-12T02:37:17;100156.34;;;23.26;100.00
38022;BME280;23832;43.216;27.946;2022-09-12T02:39:25;100160.38;;;23.18;100.00
38022;BME280;23832;43.216;27.946;2022-09-12T02:41:27;100153.94;;;23.19;100.00
38022;BME280;23832;43.216;27.946;2022-09-12T02:43:29;100152.31;;;23.18;100.00
38022;BME280;23832;43.216;27.946;2022-09-12T02:45:32;100156.88;;;23.18;100.00
38022;BME280;23832;43.216;27.946;2022-09-12T02:47:38;100163.06;;;23.18;100.00
38022;BME280;23832;43.216;27.946;2022-09-12T02:49:43;100156.34;;;23.16;100.00
38022;BME280;23832;43.216;27.946;2022-09-12T02:51:45;100149.38;;;23.10;100.00
38022;BME280;23832;43.216;27.946;2022-09-12T02:53:50;100156.06;;;23.17;100.00
38022;BME280;23832;43.216;27.946;2022-09-12T02:55:52;100174.09;;;23.17;100.00
38022;BME280;23832;43.216;27.946;2022-09-12T02:57:54;100175.69;;;23.18;100.00
38022;BME280;23832;43.216;27.946;2022-09-12T02:59:59;100155.53;;;23.10;100.00
38022;BME280;23832;43.216;27.946;2022-09-12T03:02:14;100171.41;;;23.22;100.00
38022;BME280;23832;43.216;27.946;2022-09-12T03:04:36;100162.53;;;23.21;100.00
38022;BME280;23832;43.216;27.946;2022-09-12T03:06:50;100173.00;;;23.18;100.00
38022;BME280;23832;43.216;27.946;2022-09-12T03:09:08;100156.63;;;23.25;100.00
38022;BME280;23832;43.216;27.946;2022-09-12T03:11:38;100144.78;;;23.20;100.00
38022;BME280;23832;43.216;27.946;2022-09-12T03:13:52;100164.69;;;23.30;100.00
38022;BME280;23832;43.216;27.946;2022-09-12T03:16:03;100174.91;;;23.33;100.00
38022;BME280;23832;43.216;27.946;2022-09-12T03:18:22;100156.34;;;23.31;100.00
38022;BME280;23832;43.216;27.946;2022-09-12T03:20:32;100166.28;;;23.15;100.00
38022;BME280;23832;43.216;27.946;2022-09-12T03:22:48;100157.97;;;23.12;100.00
38022;BME280;23832;43.216;27.946;2022-09-12T03:24:57;100178.41;;;23.23;100.00
38022;BME280;23832;43.216;27.946;2022-09-12T03:27:07;100157.69;;;23.23;100.00
38022;BME280;23832;43.216;27.946;2022-09-12T03:29:12;100152.31;;;23.18;100.00
38022;BME280;23832;43.216;27.946;2022-09-12T03:31:17;100149.66;;;23.29;100.00
38022;BME280;23832;43.216;27.946;2022-09-12T03:33:21;100139.16;;;23.32;100.00
38022;BME280;23832;43.216;27.946;2022-09-12T03:35:24;100143.72;;;23.37;100.00
38022;BME280;23832;43.216;27.946;2022-09-12T03:37:26;100137.50;;;23.36;100.00
38022;BME280;23832;43.216;27.946;2022-09-12T03:39:28;100134.59;;;23.38;100.00
38022;BME280;23832;43.216;27.946;2022-09-12T03:41:31;100139.97;;;23.38;100.00
38022;BME280;23832;43.216;27.946;2022-09-12T03:43:33;100136.72;;;23.36;100.00
38022;BME280;23832;43.216;27.946;2022-09-12T03:45:36;100134.28;;;23.34;100.00
38022;BME280;23832;43.216;27.946;2022-09-12T03:47:39;100128.91;;;23.24;100.00
38022;BME280;23832;43.216;27.946;2022-09-12T03:49:41;100137.53;;;23.26;100.00
38022;BME280;23832;43.216;27.946;2022-09-12T03:51:42;100145.84;;;23.25;100.00
38022;BME280;23832;43.216;27.946;2022-09-12T03:53:44;100148.81;;;23.23;100.00
38022;BME280;23832;43.216;27.946;2022-09-12T03:55:46;100149.09;;;23.21;100.00
38022;BME280;23832;43.216;27.946;2022-09-12T03:57:53;100144.00;;;23.20;100.00
38022;BME280;23832;43.216;27.946;2022-09-12T03:59:56;100149.06;;;23.16;100.00
38022;BME280;23832;43.216;27.946;2022-09-12T04:01:57;100155.81;;;23.14;100.00
38022;BME280;23832;43.216;27.946;2022-09-12T04:03:59;100153.91;;;23.09;100.00
38022;BME280;23832;43.216;27.946;2022-09-12T04:06:02;100153.09;;;23.04;100.00
38022;BME280;23832;43.216;27.946;2022-09-12T04:08:04;100158.19;;;23.00;100.00
38022;BME280;23832;43.216;27.946;2022-09-12T04:10:06;100155.50;;;23.00;100.00
38022;BME280;23832;43.216;27.946;2022-09-12T04:12:09;100158.50;;;23.04;100.00
38022;BME280;23832;43.216;27.946;2022-09-12T04:14:13;100189.94;;;23.08;100.00
38022;BME280;23832;43.216;27.946;2022-09-12T04:16:15;100181.34;;;23.11;100.00
38022;BME280;23832;43.216;27.946;2022-09-12T04:18:18;100185.38;;;23.14;100.00
38022;BME280;23832;43.216;27.946;2022-09-12T04:20:20;100178.66;;;23.16;100.00
38022;BME280;23832;43.216;27.946;2022-09-12T04:22:22;100134.53;;;22.97;100.00
38022;BME280;23832;43.216;27.946;2022-09-12T04:24:23;100166.03;;;23.22;100.00
38022;BME280;23832;43.216;27.946;2022-09-12T04:26:25;100174.91;;;23.22;100.00
38022;BME280;23832;43.216;27.946;2022-09-12T04:28:29;100176.53;;;23.23;100.00
38022;BME280;23832;43.216;27.946;2022-09-12T04:30:34;100174.38;;;23.26;100.00
38022;BME280;23832;43.216;27.946;2022-09-12T04:32:35;100175.97;;;23.27;100.00
38022;BME280;23832;43.216;27.946;2022-09-12T04:34:37;100165.22;;;23.27;100.00
38022;BME280;23832;43.216;27.946;2022-09-12T04:36:40;100168.19;;;23.25;100.00
38022;BME280;23832;43.216;27.946;2022-09-12T04:38:42;100168.97;;;23.26;100.00
38022;BME280;23832;43.216;27.946;2022-09-12T04:40:45;100167.38;;;23.25;100.00
38022;BME280;23832;43.216;27.946;2022-09-12T04:42:47;100170.06;;;23.25;100.00
38022;BME280;23832;43.216;27.946;2022-09-12T04:44:49;100171.69;;;23.26;100.00
38022;BME280;23832;43.216;27.946;2022-09-12T04:46:52;100189.19;;;23.28;100.00
38022;BME280;23832;43.216;27.946;2022-09-12T04:48:54;100184.03;;;23.27;100.00
38022;BME280;23832;43.216;27.946;2022-09-12T04:51:05;100189.41;;;23.27;100.00
38022;BME280;23832;43.216;27.946;2022-09-12T04:53:07;100187.81;;;23.26;100.00
38022;BME280;23832;43.216;27.946;2022-09-12T04:55:09;100181.91;;;23.23;100.00
38022;BME280;23832;43.216;27.946;2022-09-12T04:57:11;100172.75;;;23.25;100.00
38022;BME280;23832;43.216;27.946;2022-09-12T04:59:14;100169.28;;;23.29;100.00
38022;BME280;23832;43.216;27.946;2022-09-12T05:01:17;100173.31;;;23.32;100.00
38022;BME280;23832;43.216;27.946;2022-09-12T05:03:21;100177.59;;;23.33;100.00
38022;BME280;23832;43.216;27.946;2022-09-12T05:05:23;100187.28;;;23.34;100.00
38022;BME280;23832;43.216;27.946;2022-09-12T05:07:25;100188.09;;;23.34;100.00
38022;BME280;23832;43.216;27.946;2022-09-12T05:09:27;100197.22;;;23.33;100.00
38022;BME280;23832;43.216;27.946;2022-09-12T05:11:31;100189.44;;;23.32;100.00
38022;BME280;23832;43.216;27.946;2022-09-12T05:13:33;100179.75;;;23.31;100.00
38022;BME280;23832;43.216;27.946;2022-09-12T05:15:36;100180.56;;;23.31;100.00
38022;BME280;23832;43.216;27.946;2022-09-12T05:17:38;100194.81;;;23.32;100.00
38022;BME280;23832;43.216;27.946;2022-09-12T05:19:41;100186.75;;;23.32;100.00
38022;BME280;23832;43.216;27.946;2022-09-12T05:21:43;100189.69;;;23.35;100.00
38022;BME280;23832;43.216;27.946;2022-09-12T05:23:45;100188.09;;;23.39;100.00
38022;BME280;23832;43.216;27.946;2022-09-12T05:25:48;100182.19;;;23.42;100.00
38022;BME280;23832;43.216;27.946;2022-09-12T05:27:51;100184.59;;;23.44;100.00
38022;BME280;23832;43.216;27.946;2022-09-12T05:29:53;100196.97;;;23.50;100.00
38022;BME280;23832;43.216;27.946;2022-09-12T05:31:55;100195.63;;;23.52;100.00
38022;BME280;23832;43.216;27.946;2022-09-12T05:33:57;100200.19;;;23.52;100.00
38022;BME280;23832;43.216;27.946;2022-09-12T05:36:01;100207.19;;;23.53;100.00
38022;BME280;23832;43.216;27.946;2022-09-12T05:38:03;100207.19;;;23.53;100.00
38022;BME280;23832;43.216;27.946;2022-09-12T05:40:06;100199.69;;;23.55;100.00
38022;BME280;23832;43.216;27.946;2022-09-12T05:42:08;100194.31;;;23.55;100.00
38022;BME280;23832;43.216;27.946;2022-09-12T05:44:11;100198.34;;;23.58;100.00
38022;BME280;23832;43.216;27.946;2022-09-12T05:46:16;100190.28;;;23.63;100.00
38022;BME280;23832;43.216;27.946;2022-09-12T05:48:18;100201.31;;;23.66;100.00
38022;BME280;23832;43.216;27.946;2022-09-12T05:50:20;100190.00;;;23.69;100.00
38022;BME280;23832;43.216;27.946;2022-09-12T05:52:23;100200.50;;;23.76;100.00
38022;BME280;23832;43.216;27.946;2022-09-12T05:54:26;100197.53;;;23.77;100.00
38022;BME280;23832;43.216;27.946;2022-09-12T05:56:28;100198.34;;;23.78;100.00
38022;BME280;23832;43.216;27.946;2022-09-12T05:58:31;100194.28;;;23.81;100.00
38022;BME280;23832;43.216;27.946;2022-09-12T06:00:33;100198.63;;;23.82;100.00
38022;BME280;23832;43.216;27.946;2022-09-12T06:02:35;100195.38;;;23.79;100.00
38022;BME280;23832;43.216;27.946;2022-09-12T06:04:38;100187.06;;;23.76;100.00
38022;BME280;23832;43.216;27.946;2022-09-12T06:06:42;100199.69;;;23.75;100.00
38022;BME280;23832;43.216;27.946;2022-09-12T06:08:48;100196.47;;;23.73;100.00
38022;BME280;23832;43.216;27.946;2022-09-12T06:10:50;100216.91;;;23.79;100.00
38022;BME280;23832;43.216;27.946;2022-09-12T06:12:52;100197.00;;;23.91;100.00
38022;BME280;23832;43.216;27.946;2022-09-12T06:14:54;100192.13;;;23.98;100.00
38022;BME280;23832;43.216;27.946;2022-09-12T06:16:56;100193.97;;;24.13;100.00
38022;BME280;23832;43.216;27.946;2022-09-12T06:18:59;100197.44;;;24.28;100.00
38022;BME280;23832;43.216;27.946;2022-09-12T06:21:03;100204.97;;;24.47;100.00
38022;BME280;23832;43.216;27.946;2022-09-12T06:23:05;100197.06;;;24.66;100.00
38022;BME280;23832;43.216;27.946;2022-09-12T06:25:08;100203.16;;;24.86;100.00
38022;BME280;23832;43.216;27.946;2022-09-12T06:27:10;100189.88;;;25.05;100.00
38022;BME280;23832;43.216;27.946;2022-09-12T06:29:13;100189.75;;;25.26;100.00
38022;BME280;23832;43.216;27.946;2022-09-12T06:31:16;100191.47;;;25.45;100.00
38022;BME280;23832;43.216;27.946;2022-09-12T06:33:19;100185.38;;;25.64;100.00
38022;BME280;23832;43.216;27.946;2022-09-12T06:35:21;100180.91;;;25.83;100.00
38022;BME280;23832;43.216;27.946;2022-09-12T06:37:24;100186.91;;;26.04;100.00
38022;BME280;23832;43.216;27.946;2022-09-12T06:39:26;100186.47;;;26.21;100.00
38022;BME280;23832;43.216;27.946;2022-09-12T06:41:30;100192.75;;;26.40;100.00
38022;BME280;23832;43.216;27.946;2022-09-12T06:43:32;100188.78;;;26.56;100.00
38022;BME280;23832;43.216;27.946;2022-09-12T06:45:34;100190.69;;;26.75;100.00
38022;BME280;23832;43.216;27.946;2022-09-12T06:47:36;100182.22;;;26.81;100.00
38022;BME280;23832;43.216;27.946;2022-09-12T06:49:38;100182.44;;;26.85;99.56
38022;BME280;23832;43.216;27.946;2022-09-12T06:51:40;100192.97;;;26.86;97.53
38022;BME280;23832;43.216;27.946;2022-09-12T06:53:43;100189.25;;;26.82;90.52
38022;BME280;23832;43.216;27.946;2022-09-12T06:55:45;100195.16;;;26.84;90.38
38022;BME280;23832;43.216;27.946;2022-09-12T06:57:49;100194.59;;;26.87;88.74
38022;BME280;23832;43.216;27.946;2022-09-12T06:59:51;100194.75;;;26.96;90.08
38022;BME280;23832;43.216;27.946;2022-09-12T07:01:53;100189.22;;;27.06;89.08
38022;BME280;23832;43.216;27.946;2022-09-12T07:03:57;100191.47;;;27.18;86.88
38022;BME280;23832;43.216;27.946;2022-09-12T07:06:02;100196.13;;;27.31;84.65
38022;BME280;23832;43.216;27.946;2022-09-12T07:08:04;100188.88;;;27.46;84.81
38022;BME280;23832;43.216;27.946;2022-09-12T07:10:06;100189.44;;;27.61;82.76
38022;BME280;23832;43.216;27.946;2022-09-12T07:12:11;100197.28;;;27.77;81.09
38022;BME280;23832;43.216;27.946;2022-09-12T07:14:14;100201.34;;;27.93;79.51
38022;BME280;23832;43.216;27.946;2022-09-12T07:16:17;100191.41;;;28.02;78.44
38022;BME280;23832;43.216;27.946;2022-09-12T07:18:19;100193.25;;;28.20;75.52
38022;BME280;23832;43.216;27.946;2022-09-12T07:20:24;100196.00;;;28.34;72.09
38022;BME280;23832;43.216;27.946;2022-09-12T07:22:29;100201.19;;;28.31;67.10
38022;BME280;23832;43.216;27.946;2022-09-12T07:24:31;100205.41;;;28.37;67.21
38022;BME280;23832;43.216;27.946;2022-09-12T07:26:33;100196.19;;;28.38;66.41
38022;BME280;23832;43.216;27.946;2022-09-12T07:28:35;100205.84;;;28.44;65.44
38022;BME280;23832;43.216;27.946;2022-09-12T07:30:39;100203.53;;;28.51;65.93
38022;BME280;23832;43.216;27.946;2022-09-12T07:32:41;100193.34;;;28.56;64.72
38022;BME280;23832;43.216;27.946;2022-09-12T07:34:44;100192.94;;;28.63;63.58
38022;BME280;23832;43.216;27.946;2022-09-12T07:36:46;100199.25;;;28.72;64.89
38022;BME280;23832;43.216;27.946;2022-09-12T07:38:52;100196.22;;;28.88;65.28
38022;BME280;23832;43.216;27.946;2022-09-12T07:40:55;100185.66;;;29.00;65.41
38022;BME280;23832;43.216;27.946;2022-09-12T07:42:57;100199.44;;;29.26;62.44
38022;BME280;23832;43.216;27.946;2022-09-12T07:44:59;100190.44;;;29.39;59.84
38022;BME280;23832;43.216;27.946;2022-09-12T07:47:03;100189.78;;;29.56;60.97
38022;BME280;23832;43.216;27.946;2022-09-12T07:49:04;100183.00;;;29.67;58.78
38022;BME280;23832;43.216;27.946;2022-09-12T07:51:08;100190.28;;;29.89;59.12
38022;BME280;23832;43.216;27.946;2022-09-12T07:53:11;100181.31;;;30.11;58.07
38022;BME280;23832;43.216;27.946;2022-09-12T07:55:13;100186.16;;;30.31;58.26
38022;BME280;23832;43.216;27.946;2022-09-12T07:57:15;100183.16;;;30.41;55.78
38022;BME280;23832;43.216;27.946;2022-09-12T07:59:17;100179.31;;;30.42;53.86
38022;BME280;23832;43.216;27.946;2022-09-12T08:01:20;100183.63;;;30.43;54.01
38022;BME280;23832;43.216;27.946;2022-09-12T08:03:25;100181.38;;;30.45;54.58
38022;BME280;23832;43.216;27.946;2022-09-12T08:05:27;100178.53;;;30.50;54.95
38022;BME280;23832;43.216;27.946;2022-09-12T08:07:29;100181.91;;;30.56;53.99
38022;BME280;23832;43.216;27.946;2022-09-12T08:09:31;100181.44;;;30.63;52.85
38022;BME280;23832;43.216;27.946;2022-09-12T08:11:33;100175.41;;;30.66;51.97
38022;BME280;23832;43.216;27.946;2022-09-12T08:13:37;100178.91;;;30.66;51.70
38022;BME280;23832;43.216;27.946;2022-09-12T08:15:39;100183.56;;;30.66;51.31
38022;BME280;23832;43.216;27.946;2022-09-12T08:17:41;100179.72;;;30.67;50.89
38022;BME280;23832;43.216;27.946;2022-09-12T08:19:45;100179.88;;;30.79;50.71
38022;BME280;23832;43.216;27.946;2022-09-12T08:21:47;100170.78;;;31.01;49.72
38022;BME280;23832;43.216;27.946;2022-09-12T08:23:51;100185.69;;;31.21;49.30
38022;BME280;23832;43.216;27.946;2022-09-12T08:27:57;100176.44;;;31.86;49.53
38022;BME280;23832;43.216;27.946;2022-09-12T08:30:00;100177.38;;;32.37;49.39
38022;BME280;23832;43.216;27.946;2022-09-12T08:32:02;100172.69;;;32.88;47.71
38022;BME280;23832;43.216;27.946;2022-09-12T08:34:05;100150.63;;;33.14;46.55
38022;BME280;23832;43.216;27.946;2022-09-12T08:36:13;100161.78;;;33.42;45.03
38022;BME280;23832;43.216;27.946;2022-09-12T08:38:15;100165.13;;;33.47;43.50
38022;BME280;23832;43.216;27.946;2022-09-12T08:40:19;100154.00;;;33.77;42.37
38022;BME280;23832;43.216;27.946;2022-09-12T08:42:27;100148.13;;;33.99;41.40
38022;BME280;23832;43.216;27.946;2022-09-12T08:44:47;100161.94;;;34.15;40.70
38022;BME280;23832;43.216;27.946;2022-09-12T08:47:10;100152.78;;;34.48;40.39
38022;BME280;23832;43.216;27.946;2022-09-12T08:49:26;100151.38;;;34.78;39.49
38022;BME280;23832;43.216;27.946;2022-09-12T08:51:32;100144.41;;;35.09;39.01
38022;BME280;23832;43.216;27.946;2022-09-12T08:53:35;100153.19;;;35.42;38.58
38022;BME280;23832;43.216;27.946;2022-09-12T08:55:40;100150.56;;;35.77;37.40
38022;BME280;23832;43.216;27.946;2022-09-12T08:57:43;100140.56;;;36.01;36.58
38022;BME280;23832;43.216;27.946;2022-09-12T08:59:45;100149.38;;;36.26;35.81
38022;BME280;23832;43.216;27.946;2022-09-12T09:01:48;100145.09;;;36.44;34.39
38022;BME280;23832;43.216;27.946;2022-09-12T09:04:08;100140.78;;;36.62;32.73
38022;BME280;23832;43.216;27.946;2022-09-12T09:06:23;100136.66;;;36.53;32.49
38022;BME280;23832;43.216;27.946;2022-09-12T09:08:40;100136.09;;;36.44;32.41
38022;BME280;23832;43.216;27.946;2022-09-12T09:10:48;100128.78;;;36.16;32.66
38022;BME280;23832;43.216;27.946;2022-09-12T09:12:59;100127.94;;;35.96;32.48
38022;BME280;23832;43.216;27.946;2022-09-12T09:15:13;100124.81;;;35.98;32.97
38022;BME280;23832;43.216;27.946;2022-09-12T09:17:24;100127.47;;;35.94;33.29
38022;BME280;23832;43.216;27.946;2022-09-12T09:19:33;100123.84;;;35.90;32.87
38022;BME280;23832;43.216;27.946;2022-09-12T09:21:41;100122.69;;;35.75;32.31
38022;BME280;23832;43.216;27.946;2022-09-12T09:23:49;100121.38;;;35.53;32.64
38022;BME280;23832;43.216;27.946;2022-09-12T09:25:57;100114.13;;;35.17;33.25
38022;BME280;23832;43.216;27.946;2022-09-12T09:28:04;100112.13;;;34.74;33.85
38022;BME280;23832;43.216;27.946;2022-09-12T09:30:13;100109.94;;;34.27;34.34
38022;BME280;23832;43.216;27.946;2022-09-12T09:32:18;100108.03;;;33.91;35.08
38022;BME280;23832;43.216;27.946;2022-09-12T09:34:27;100115.06;;;33.80;35.66
38022;BME280;23832;43.216;27.946;2022-09-12T09:36:35;100106.88;;;33.80;35.71
38022;BME280;23832;43.216;27.946;2022-09-12T09:38:48;100101.41;;;34.04;35.93
38022;BME280;23832;43.216;27.946;2022-09-12T09:41:02;100101.94;;;34.34;36.17
38022;BME280;23832;43.216;27.946;2022-09-12T09:43:15;100108.81;;;34.68;35.90
38022;BME280;23832;43.216;27.946;2022-09-12T09:45:20;100099.69;;;35.05;35.43
38022;BME280;23832;43.216;27.946;2022-09-12T09:47:23;100104.72;;;35.46;35.07
38022;BME280;23832;43.216;27.946;2022-09-12T09:49:27;100102.28;;;35.89;34.52
38022;BME280;23832;43.216;27.946;2022-09-12T09:51:34;100100.59;;;36.19;33.10
38022;BME280;23832;43.216;27.946;2022-09-12T09:53:42;100105.00;;;36.39;32.50
38022;BME280;23832;43.216;27.946;2022-09-12T09:55:48;100103.19;;;36.47;32.08
38022;BME280;23832;43.216;27.946;2022-09-12T09:57:50;100099.19;;;36.25;32.29
38022;BME280;23832;43.216;27.946;2022-09-12T09:59:52;100099.97;;;35.91;32.58
38022;BME280;23832;43.216;27.946;2022-09-12T10:01:56;100098.34;;;35.58;32.26
38022;BME280;23832;43.216;27.946;2022-09-12T10:04:02;100098.41;;;35.14;33.18
38022;BME280;23832;43.216;27.946;2022-09-12T10:06:22;100086.91;;;34.68;32.52
38022;BME280;23832;43.216;27.946;2022-09-12T10:08:27;100099.78;;;34.28;34.19
38022;BME280;23832;43.216;27.946;2022-09-12T10:10:29;100099.38;;;33.89;34.47
38022;BME280;23832;43.216;27.946;2022-09-12T10:12:32;100102.41;;;33.63;34.59
38022;BME280;23832;43.216;27.946;2022-09-12T10:14:36;100107.03;;;33.38;35.14
38022;BME280;23832;43.216;27.946;2022-09-12T10:16:48;100106.66;;;33.27;35.22
38022;BME280;23832;43.216;27.946;2022-09-12T10:18:52;100098.28;;;33.12;35.72
38022;BME280;23832;43.216;27.946;2022-09-12T10:20:55;100093.78;;;32.95;35.48
38022;BME280;23832;43.216;27.946;2022-09-12T10:22:58;100098.25;;;32.79;35.69
38022;BME280;23832;43.216;27.946;2022-09-12T10:25:01;100098.59;;;32.56;36.31
38022;BME280;23832;43.216;27.946;2022-09-12T10:27:14;100094.94;;;32.23;36.85
38022;BME280;23832;43.216;27.946;2022-09-12T10:29:21;100086.13;;;31.96;37.25
38022;BME280;23832;43.216;27.946;2022-09-12T10:31:26;100096.91;;;31.92;38.03
38022;BME280;23832;43.216;27.946;2022-09-12T10:33:30;100101.25;;;31.85;38.16
38022;BME280;23832;43.216;27.946;2022-09-12T10:35:44;100093.53;;;31.87;38.40
38022;BME280;23832;43.216;27.946;2022-09-12T10:37:52;100100.91;;;31.86;38.36
38022;BME280;23832;43.216;27.946;2022-09-12T10:39:56;100098.88;;;31.83;38.36
38022;BME280;23832;43.216;27.946;2022-09-12T10:41:59;100098.69;;;31.80;38.32
38022;BME280;23832;43.216;27.946;2022-09-12T10:44:05;100096.16;;;31.75;38.31